Terminal Aerodrome Forecast
Issued by NWS Wilmington, OH

Current Version | Previous Version | Graphics & Text | Print | Product List | Glossary On
Versions: 1 2 3 4 5 6 7 8 9 10 11 12 13 14 15 16 17 18 19 20 21
298
FTUS41 KILN 231619 AAC
TAFILN
TAF AMD
KILN 231619Z 2316/2412 21011KT P6SM BKN013
     FM231800 21009KT P6SM BKN025
     FM231900 21009KT P6SM BKN035
     FM240400 17006KT P6SM OVC026
     FM240900 19010KT P6SM BKN050=

USA.gov is the U.S. government's official web portal to all federal, state and local government web resources and services.